sensor_id;sensor_type;location;lat;lon;timestamp;P1;durP1;ratioP1;P2;durP2;ratioP2
3769;SDS011;1900;48.890;9.190;2024-03-08T00:01:50;27.07;;;15.87;;
3769;SDS011;1900;48.890;9.190;2024-03-08T00:04:17;25.00;;;15.70;;
3769;SDS011;1900;48.890;9.190;2024-03-08T00:06:42;35.57;;;17.00;;
3769;SDS011;1900;48.890;9.190;2024-03-08T00:09:13;24.73;;;15.10;;
3769;SDS011;1900;48.890;9.190;2024-03-08T00:11:40;27.77;;;16.77;;
3769;SDS011;1900;48.890;9.190;2024-03-08T00:14:06;24.47;;;15.30;;
3769;SDS011;1900;48.890;9.190;2024-03-08T00:16:33;27.77;;;16.10;;
3769;SDS011;1900;48.890;9.190;2024-03-08T00:19:00;24.97;;;14.80;;
3769;SDS011;1900;48.890;9.190;2024-03-08T00:21:26;33.30;;;15.77;;
3769;SDS011;1900;48.890;9.190;2024-03-08T00:23:52;28.20;;;16.90;;
3769;SDS011;1900;48.890;9.190;2024-03-08T00:26:21;29.20;;;15.80;;
3769;SDS011;1900;48.890;9.190;2024-03-08T00:28:49;27.40;;;15.83;;
3769;SDS011;1900;48.890;9.190;2024-03-08T00:31:15;23.67;;;15.20;;
3769;SDS011;1900;48.890;9.190;2024-03-08T00:33:43;27.77;;;15.10;;
3769;SDS011;1900;48.890;9.190;2024-03-08T00:36:09;26.43;;;15.27;;
3769;SDS011;1900;48.890;9.190;2024-03-08T00:38:34;26.00;;;15.47;;
3769;SDS011;1900;48.890;9.190;2024-03-08T00:41:00;25.53;;;15.40;;
3769;SDS011;1900;48.890;9.190;2024-03-08T00:43:27;26.60;;;16.13;;
3769;SDS011;1900;48.890;9.190;2024-03-08T00:45:52;27.90;;;14.13;;
3769;SDS011;1900;48.890;9.190;2024-03-08T00:48:18;23.43;;;15.07;;
3769;SDS011;1900;48.890;9.190;2024-03-08T00:50:44;27.20;;;15.27;;
3769;SDS011;1900;48.890;9.190;2024-03-08T00:53:11;31.40;;;15.50;;
3769;SDS011;1900;48.890;9.190;2024-03-08T00:55:37;25.80;;;14.20;;
3769;SDS011;1900;48.890;9.190;2024-03-08T00:58:03;26.10;;;14.90;;
3769;SDS011;1900;48.890;9.190;2024-03-08T01:00:29;28.30;;;16.60;;
3769;SDS011;1900;48.890;9.190;2024-03-08T01:02:55;29.13;;;16.07;;
3769;SDS011;1900;48.890;9.190;2024-03-08T01:05:21;25.67;;;14.17;;
3769;SDS011;1900;48.890;9.190;2024-03-08T01:07:50;22.63;;;13.63;;
3769;SDS011;1900;48.890;9.190;2024-03-08T01:10:16;29.67;;;16.47;;
3769;SDS011;1900;48.890;9.190;2024-03-08T01:12:42;26.63;;;14.70;;
3769;SDS011;1900;48.890;9.190;2024-03-08T01:15:08;24.87;;;15.40;;
3769;SDS011;1900;48.890;9.190;2024-03-08T01:17:35;26.50;;;15.03;;
3769;SDS011;1900;48.890;9.190;2024-03-08T01:20:01;24.90;;;14.47;;
3769;SDS011;1900;48.890;9.190;2024-03-08T01:22:28;28.20;;;15.10;;
3769;SDS011;1900;48.890;9.190;2024-03-08T01:24:55;26.73;;;15.20;;
3769;SDS011;1900;48.890;9.190;2024-03-08T01:27:21;31.77;;;15.40;;
3769;SDS011;1900;48.890;9.190;2024-03-08T01:29:47;29.60;;;15.40;;
3769;SDS011;1900;48.890;9.190;2024-03-08T01:32:13;28.37;;;15.43;;
3769;SDS011;1900;48.890;9.190;2024-03-08T01:34:40;24.67;;;15.00;;
3769;SDS011;1900;48.890;9.190;2024-03-08T01:37:06;27.17;;;16.03;;
3769;SDS011;1900;48.890;9.190;2024-03-08T01:39:32;26.13;;;15.10;;
3769;SDS011;1900;48.890;9.190;2024-03-08T01:41:57;29.30;;;15.80;;
3769;SDS011;1900;48.890;9.190;2024-03-08T01:44:23;28.90;;;15.27;;
3769;SDS011;1900;48.890;9.190;2024-03-08T01:46:49;28.73;;;16.93;;
3769;SDS011;1900;48.890;9.190;2024-03-08T01:49:17;26.20;;;14.37;;
3769;SDS011;1900;48.890;9.190;2024-03-08T01:51:45;27.57;;;15.07;;
3769;SDS011;1900;48.890;9.190;2024-03-08T01:54:13;24.20;;;14.10;;
3769;SDS011;1900;48.890;9.190;2024-03-08T01:56:41;29.37;;;15.57;;
3769;SDS011;1900;48.890;9.190;2024-03-08T01:59:08;25.10;;;15.43;;
3769;SDS011;1900;48.890;9.190;2024-03-08T02:01:34;29.67;;;15.00;;
3769;SDS011;1900;48.890;9.190;2024-03-08T02:04:00;26.10;;;15.87;;
3769;SDS011;1900;48.890;9.190;2024-03-08T02:06:25;24.93;;;14.60;;
3769;SDS011;1900;48.890;9.190;2024-03-08T02:08:51;26.23;;;14.43;;
3769;SDS011;1900;48.890;9.190;2024-03-08T02:11:18;24.50;;;14.80;;
3769;SDS011;1900;48.890;9.190;2024-03-08T02:13:45;26.37;;;15.30;;
3769;SDS011;1900;48.890;9.190;2024-03-08T02:16:11;24.90;;;14.07;;
3769;SDS011;1900;48.890;9.190;2024-03-08T02:18:37;22.93;;;14.80;;
3769;SDS011;1900;48.890;9.190;2024-03-08T02:21:04;25.10;;;15.00;;
3769;SDS011;1900;48.890;9.190;2024-03-08T02:23:32;23.30;;;13.40;;
3769;SDS011;1900;48.890;9.190;2024-03-08T02:25:58;21.50;;;15.77;;
3769;SDS011;1900;48.890;9.190;2024-03-08T02:28:24;31.43;;;16.10;;
3769;SDS011;1900;48.890;9.190;2024-03-08T02:30:50;27.43;;;15.03;;
3769;SDS011;1900;48.890;9.190;2024-03-08T02:33:19;30.83;;;15.27;;
3769;SDS011;1900;48.890;9.190;2024-03-08T02:35:45;25.30;;;14.70;;
3769;SDS011;1900;48.890;9.190;2024-03-08T02:38:12;28.70;;;14.77;;
3769;SDS011;1900;48.890;9.190;2024-03-08T02:40:42;33.37;;;14.53;;
3769;SDS011;1900;48.890;9.190;2024-03-08T02:43:08;26.50;;;13.93;;
3769;SDS011;1900;48.890;9.190;2024-03-08T02:45:35;26.83;;;15.10;;
3769;SDS011;1900;48.890;9.190;2024-03-08T02:48:01;28.07;;;15.23;;
3769;SDS011;1900;48.890;9.190;2024-03-08T02:50:27;23.00;;;13.53;;
3769;SDS011;1900;48.890;9.190;2024-03-08T02:52:53;28.33;;;15.03;;
3769;SDS011;1900;48.890;9.190;2024-03-08T02:55:19;22.97;;;14.23;;
3769;SDS011;1900;48.890;9.190;2024-03-08T02:57:45;24.30;;;14.20;;
3769;SDS011;1900;48.890;9.190;2024-03-08T03:00:14;18.83;;;12.00;;
3769;SDS011;1900;48.890;9.190;2024-03-08T03:02:41;21.80;;;13.97;;
3769;SDS011;1900;48.890;9.190;2024-03-08T03:05:07;27.63;;;14.03;;
3769;SDS011;1900;48.890;9.190;2024-03-08T03:07:35;22.67;;;13.93;;
3769;SDS011;1900;48.890;9.190;2024-03-08T03:10:01;24.40;;;14.77;;
3769;SDS011;1900;48.890;9.190;2024-03-08T03:12:27;25.37;;;14.90;;
3769;SDS011;1900;48.890;9.190;2024-03-08T03:14:53;24.27;;;13.40;;
3769;SDS011;1900;48.890;9.190;2024-03-08T03:17:19;25.70;;;13.67;;
3769;SDS011;1900;48.890;9.190;2024-03-08T03:19:45;23.30;;;13.20;;
3769;SDS011;1900;48.890;9.190;2024-03-08T03:22:12;23.23;;;13.20;;
3769;SDS011;1900;48.890;9.190;2024-03-08T03:24:37;23.83;;;13.20;;
3769;SDS011;1900;48.890;9.190;2024-03-08T03:27:04;25.33;;;14.13;;
3769;SDS011;1900;48.890;9.190;2024-03-08T03:29:39;22.97;;;11.80;;
3769;SDS011;1900;48.890;9.190;2024-03-08T03:32:10;26.60;;;14.40;;
3769;SDS011;1900;48.890;9.190;2024-03-08T03:34:37;27.03;;;13.83;;
3769;SDS011;1900;48.890;9.190;2024-03-08T03:37:03;22.20;;;13.40;;
3769;SDS011;1900;48.890;9.190;2024-03-08T03:39:30;20.07;;;12.37;;
3769;SDS011;1900;48.890;9.190;2024-03-08T03:42:22;25.77;;;12.83;;
3769;SDS011;1900;48.890;9.190;2024-03-08T03:44:49;24.40;;;13.47;;
3769;SDS011;1900;48.890;9.190;2024-03-08T03:47:15;24.47;;;13.40;;
3769;SDS011;1900;48.890;9.190;2024-03-08T03:49:41;24.87;;;13.20;;
3769;SDS011;1900;48.890;9.190;2024-03-08T03:52:07;20.93;;;12.90;;
3769;SDS011;1900;48.890;9.190;2024-03-08T03:54:33;23.77;;;13.13;;
3769;SDS011;1900;48.890;9.190;2024-03-08T03:56:59;25.17;;;14.00;;
3769;SDS011;1900;48.890;9.190;2024-03-08T03:59:25;22.60;;;13.97;;
3769;SDS011;1900;48.890;9.190;2024-03-08T04:01:54;26.63;;;13.73;;
3769;SDS011;1900;48.890;9.190;2024-03-08T04:04:20;23.80;;;12.00;;
3769;SDS011;1900;48.890;9.190;2024-03-08T04:06:46;21.80;;;12.13;;
3769;SDS011;1900;48.890;9.190;2024-03-08T04:09:12;25.70;;;13.27;;
3769;SDS011;1900;48.890;9.190;2024-03-08T04:11:39;23.93;;;12.70;;
3769;SDS011;1900;48.890;9.190;2024-03-08T04:14:05;21.87;;;13.77;;
3769;SDS011;1900;48.890;9.190;2024-03-08T04:16:31;23.60;;;13.10;;
3769;SDS011;1900;48.890;9.190;2024-03-08T04:18:57;25.23;;;13.80;;
3769;SDS011;1900;48.890;9.190;2024-03-08T04:21:23;26.70;;;14.17;;
3769;SDS011;1900;48.890;9.190;2024-03-08T04:23:49;21.37;;;12.97;;
3769;SDS011;1900;48.890;9.190;2024-03-08T04:26:15;20.47;;;12.60;;
3769;SDS011;1900;48.890;9.190;2024-03-08T04:28:41;24.33;;;13.53;;
3769;SDS011;1900;48.890;9.190;2024-03-08T04:31:06;21.30;;;14.40;;
3769;SDS011;1900;48.890;9.190;2024-03-08T04:33:32;24.33;;;13.43;;
3769;SDS011;1900;48.890;9.190;2024-03-08T04:36:00;22.37;;;12.47;;
3769;SDS011;1900;48.890;9.190;2024-03-08T04:38:29;22.33;;;13.60;;
3769;SDS011;1900;48.890;9.190;2024-03-08T04:40:56;22.83;;;12.80;;
3769;SDS011;1900;48.890;9.190;2024-03-08T04:43:22;21.53;;;13.43;;
3769;SDS011;1900;48.890;9.190;2024-03-08T04:45:51;24.30;;;13.23;;
3769;SDS011;1900;48.890;9.190;2024-03-08T04:48:17;27.67;;;13.43;;
3769;SDS011;1900;48.890;9.190;2024-03-08T04:50:43;23.40;;;13.40;;
3769;SDS011;1900;48.890;9.190;2024-03-08T04:53:10;26.53;;;13.30;;
3769;SDS011;1900;48.890;9.190;2024-03-08T04:55:35;21.27;;;12.27;;
3769;SDS011;1900;48.890;9.190;2024-03-08T04:58:02;26.67;;;12.77;;
3769;SDS011;1900;48.890;9.190;2024-03-08T05:00:30;21.20;;;12.43;;
3769;SDS011;1900;48.890;9.190;2024-03-08T05:02:57;28.97;;;13.93;;
3769;SDS011;1900;48.890;9.190;2024-03-08T05:05:23;21.93;;;12.13;;
3769;SDS011;1900;48.890;9.190;2024-03-08T05:07:50;23.40;;;13.47;;
3769;SDS011;1900;48.890;9.190;2024-03-08T05:10:16;21.53;;;12.50;;
3769;SDS011;1900;48.890;9.190;2024-03-08T05:12:43;25.03;;;14.80;;
3769;SDS011;1900;48.890;9.190;2024-03-08T05:15:09;33.33;;;15.90;;
3769;SDS011;1900;48.890;9.190;2024-03-08T05:17:35;24.20;;;13.90;;
3769;SDS011;1900;48.890;9.190;2024-03-08T05:20:01;21.80;;;13.20;;
3769;SDS011;1900;48.890;9.190;2024-03-08T05:22:27;23.90;;;13.30;;
3769;SDS011;1900;48.890;9.190;2024-03-08T05:24:53;21.20;;;13.00;;
3769;SDS011;1900;48.890;9.190;2024-03-08T05:27:19;25.93;;;12.57;;
3769;SDS011;1900;48.890;9.190;2024-03-08T05:29:44;28.47;;;13.50;;
3769;SDS011;1900;48.890;9.190;2024-03-08T05:32:11;33.20;;;16.60;;
3769;SDS011;1900;48.890;9.190;2024-03-08T05:34:37;24.43;;;14.73;;
3769;SDS011;1900;48.890;9.190;2024-03-08T05:37:03;30.00;;;14.10;;
3769;SDS011;1900;48.890;9.190;2024-03-08T05:39:29;21.43;;;14.17;;
3769;SDS011;1900;48.890;9.190;2024-03-08T05:41:55;24.70;;;14.90;;
3769;SDS011;1900;48.890;9.190;2024-03-08T05:44:21;25.10;;;13.80;;
3769;SDS011;1900;48.890;9.190;2024-03-08T05:46:47;23.27;;;13.20;;
3769;SDS011;1900;48.890;9.190;2024-03-08T05:49:13;23.20;;;14.30;;
3769;SDS011;1900;48.890;9.190;2024-03-08T05:51:39;27.40;;;15.27;;
3769;SDS011;1900;48.890;9.190;2024-03-08T05:54:06;24.20;;;13.67;;
3769;SDS011;1900;48.890;9.190;2024-03-08T05:56:37;29.83;;;15.13;;
3769;SDS011;1900;48.890;9.190;2024-03-08T05:59:03;24.00;;;13.97;;
3769;SDS011;1900;48.890;9.190;2024-03-08T06:01:29;22.60;;;13.17;;
3769;SDS011;1900;48.890;9.190;2024-03-08T06:03:56;24.40;;;13.73;;
3769;SDS011;1900;48.890;9.190;2024-03-08T06:06:25;26.00;;;15.03;;
3769;SDS011;1900;48.890;9.190;2024-03-08T06:08:51;26.33;;;13.53;;
3769;SDS011;1900;48.890;9.190;2024-03-08T06:11:18;24.97;;;15.00;;
3769;SDS011;1900;48.890;9.190;2024-03-08T06:13:47;21.57;;;13.13;;
3769;SDS011;1900;48.890;9.190;2024-03-08T06:16:15;21.67;;;12.97;;
3769;SDS011;1900;48.890;9.190;2024-03-08T06:18:41;25.30;;;14.63;;
3769;SDS011;1900;48.890;9.190;2024-03-08T06:21:07;27.77;;;15.30;;
3769;SDS011;1900;48.890;9.190;2024-03-08T06:23:35;32.53;;;17.03;;
3769;SDS011;1900;48.890;9.190;2024-03-08T06:26:04;26.10;;;14.20;;
3769;SDS011;1900;48.890;9.190;2024-03-08T06:28:30;27.23;;;15.17;;
3769;SDS011;1900;48.890;9.190;2024-03-08T06:30:58;37.90;;;14.60;;
3769;SDS011;1900;48.890;9.190;2024-03-08T06:33:24;24.47;;;14.57;;
3769;SDS011;1900;48.890;9.190;2024-03-08T06:35:51;30.80;;;15.20;;
3769;SDS011;1900;48.890;9.190;2024-03-08T06:38:18;26.93;;;15.23;;
3769;SDS011;1900;48.890;9.190;2024-03-08T06:40:44;22.37;;;13.40;;
3769;SDS011;1900;48.890;9.190;2024-03-08T06:43:12;29.37;;;18.97;;
3769;SDS011;1900;48.890;9.190;2024-03-08T06:45:42;38.53;;;20.27;;
3769;SDS011;1900;48.890;9.190;2024-03-08T06:48:18;24.60;;;15.27;;
3769;SDS011;1900;48.890;9.190;2024-03-08T06:50:45;30.10;;;15.13;;
3769;SDS011;1900;48.890;9.190;2024-03-08T06:53:11;34.90;;;15.70;;
3769;SDS011;1900;48.890;9.190;2024-03-08T06:55:37;33.60;;;16.17;;
3769;SDS011;1900;48.890;9.190;2024-03-08T06:58:03;28.23;;;14.83;;
3769;SDS011;1900;48.890;9.190;2024-03-08T07:00:29;29.43;;;16.77;;
3769;SDS011;1900;48.890;9.190;2024-03-08T07:02:58;27.90;;;15.97;;
3769;SDS011;1900;48.890;9.190;2024-03-08T07:05:27;27.83;;;14.50;;
3769;SDS011;1900;48.890;9.190;2024-03-08T07:07:57;28.47;;;15.93;;
3769;SDS011;1900;48.890;9.190;2024-03-08T07:10:23;23.27;;;15.40;;
3769;SDS011;1900;48.890;9.190;2024-03-08T07:12:52;27.03;;;15.97;;
3769;SDS011;1900;48.890;9.190;2024-03-08T07:15:18;31.50;;;16.53;;
3769;SDS011;1900;48.890;9.190;2024-03-08T07:17:47;30.90;;;15.60;;
3769;SDS011;1900;48.890;9.190;2024-03-08T07:20:14;27.70;;;15.47;;
3769;SDS011;1900;48.890;9.190;2024-03-08T07:22:44;30.03;;;15.03;;
3769;SDS011;1900;48.890;9.190;2024-03-08T07:25:12;28.80;;;16.37;;
3769;SDS011;1900;48.890;9.190;2024-03-08T07:27:49;23.93;;;14.87;;
3769;SDS011;1900;48.890;9.190;2024-03-08T07:30:23;32.83;;;16.77;;
3769;SDS011;1900;48.890;9.190;2024-03-08T07:33:08;31.57;;;17.27;;
3769;SDS011;1900;48.890;9.190;2024-03-08T07:35:37;29.13;;;15.83;;
3769;SDS011;1900;48.890;9.190;2024-03-08T07:38:06;28.50;;;16.17;;
3769;SDS011;1900;48.890;9.190;2024-03-08T07:40:36;30.27;;;16.00;;
3769;SDS011;1900;48.890;9.190;2024-03-08T07:43:09;26.10;;;15.40;;
3769;SDS011;1900;48.890;9.190;2024-03-08T07:45:39;27.17;;;15.50;;
3769;SDS011;1900;48.890;9.190;2024-03-08T07:48:05;24.70;;;15.70;;
3769;SDS011;1900;48.890;9.190;2024-03-08T07:50:38;30.97;;;15.73;;
3769;SDS011;1900;48.890;9.190;2024-03-08T07:53:05;26.80;;;15.57;;
3769;SDS011;1900;48.890;9.190;2024-03-08T07:55:32;28.77;;;16.60;;
3769;SDS011;1900;48.890;9.190;2024-03-08T07:57:59;28.73;;;16.23;;
3769;SDS011;1900;48.890;9.190;2024-03-08T08:00:25;28.37;;;15.43;;
3769;SDS011;1900;48.890;9.190;2024-03-08T08:02:52;28.07;;;15.60;;
3769;SDS011;1900;48.890;9.190;2024-03-08T08:05:21;27.77;;;15.67;;
3769;SDS011;1900;48.890;9.190;2024-03-08T08:07:46;25.03;;;15.53;;
3769;SDS011;1900;48.890;9.190;2024-03-08T08:10:12;32.33;;;14.97;;
3769;SDS011;1900;48.890;9.190;2024-03-08T08:12:50;23.93;;;14.57;;
3769;SDS011;1900;48.890;9.190;2024-03-08T08:15:19;28.37;;;14.93;;
3769;SDS011;1900;48.890;9.190;2024-03-08T08:17:45;29.80;;;16.27;;
3769;SDS011;1900;48.890;9.190;2024-03-08T08:20:11;28.43;;;14.50;;
3769;SDS011;1900;48.890;9.190;2024-03-08T08:22:38;29.97;;;14.87;;
3769;SDS011;1900;48.890;9.190;2024-03-08T08:25:05;26.63;;;14.77;;
3769;SDS011;1900;48.890;9.190;2024-03-08T08:27:31;27.03;;;15.20;;
3769;SDS011;1900;48.890;9.190;2024-03-08T08:29:58;22.80;;;15.63;;
3769;SDS011;1900;48.890;9.190;2024-03-08T08:32:25;25.23;;;14.83;;
3769;SDS011;1900;48.890;9.190;2024-03-08T08:34:51;25.57;;;15.70;;
3769;SDS011;1900;48.890;9.190;2024-03-08T08:37:17;30.53;;;15.70;;
3769;SDS011;1900;48.890;9.190;2024-03-08T08:39:43;21.90;;;13.30;;
3769;SDS011;1900;48.890;9.190;2024-03-08T08:42:08;29.20;;;14.77;;
3769;SDS011;1900;48.890;9.190;2024-03-08T08:44:35;26.73;;;15.03;;
3769;SDS011;1900;48.890;9.190;2024-03-08T08:47:01;29.00;;;15.37;;
3769;SDS011;1900;48.890;9.190;2024-03-08T08:49:29;29.90;;;16.27;;
3769;SDS011;1900;48.890;9.190;2024-03-08T08:51:55;24.97;;;14.50;;
3769;SDS011;1900;48.890;9.190;2024-03-08T08:54:23;27.50;;;15.00;;
3769;SDS011;1900;48.890;9.190;2024-03-08T08:56:50;25.03;;;15.00;;
3769;SDS011;1900;48.890;9.190;2024-03-08T08:59:16;24.83;;;14.70;;
3769;SDS011;1900;48.890;9.190;2024-03-08T09:01:45;29.17;;;15.03;;
3769;SDS011;1900;48.890;9.190;2024-03-08T09:04:15;31.17;;;16.17;;
3769;SDS011;1900;48.890;9.190;2024-03-08T09:06:41;24.80;;;15.20;;
3769;SDS011;1900;48.890;9.190;2024-03-08T09:09:07;30.23;;;14.70;;
3769;SDS011;1900;48.890;9.190;2024-03-08T09:11:39;32.73;;;16.67;;
3769;SDS011;1900;48.890;9.190;2024-03-08T09:14:07;27.97;;;15.77;;
3769;SDS011;1900;48.890;9.190;2024-03-08T09:16:34;30.60;;;15.50;;
3769;SDS011;1900;48.890;9.190;2024-03-08T09:19:00;26.83;;;14.57;;
3769;SDS011;1900;48.890;9.190;2024-03-08T09:21:25;29.30;;;16.47;;
3769;SDS011;1900;48.890;9.190;2024-03-08T09:23:52;27.27;;;15.37;;
3769;SDS011;1900;48.890;9.190;2024-03-08T09:26:18;25.50;;;15.13;;
3769;SDS011;1900;48.890;9.190;2024-03-08T09:28:44;25.93;;;14.33;;
3769;SDS011;1900;48.890;9.190;2024-03-08T09:31:11;24.43;;;14.93;;
3769;SDS011;1900;48.890;9.190;2024-03-08T09:33:37;31.33;;;15.37;;
3769;SDS011;1900;48.890;9.190;2024-03-08T09:36:04;31.73;;;15.77;;
3769;SDS011;1900;48.890;9.190;2024-03-08T09:38:32;29.57;;;14.90;;
3769;SDS011;1900;48.890;9.190;2024-03-08T09:40:59;28.30;;;15.60;;
3769;SDS011;1900;48.890;9.190;2024-03-08T09:43:27;30.70;;;15.43;;
3769;SDS011;1900;48.890;9.190;2024-03-08T09:45:53;29.40;;;15.70;;
3769;SDS011;1900;48.890;9.190;2024-03-08T09:48:20;28.40;;;14.73;;
3769;SDS011;1900;48.890;9.190;2024-03-08T09:50:47;24.67;;;14.37;;
3769;SDS011;1900;48.890;9.190;2024-03-08T09:53:13;27.43;;;15.10;;
3769;SDS011;1900;48.890;9.190;2024-03-08T09:55:39;28.27;;;16.07;;
3769;SDS011;1900;48.890;9.190;2024-03-08T09:58:07;24.67;;;15.20;;
3769;SDS011;1900;48.890;9.190;2024-03-08T10:00:43;31.73;;;16.40;;
3769;SDS011;1900;48.890;9.190;2024-03-08T10:03:09;25.13;;;14.67;;
3769;SDS011;1900;48.890;9.190;2024-03-08T10:05:35;22.63;;;14.27;;
3769;SDS011;1900;48.890;9.190;2024-03-08T10:08:02;26.30;;;15.50;;
3769;SDS011;1900;48.890;9.190;2024-03-08T10:10:28;26.73;;;15.30;;
3769;SDS011;1900;48.890;9.190;2024-03-08T10:12:55;25.90;;;14.53;;
3769;SDS011;1900;48.890;9.190;2024-03-08T10:15:21;27.20;;;13.83;;
3769;SDS011;1900;48.890;9.190;2024-03-08T10:17:47;24.40;;;14.10;;
3769;SDS011;1900;48.890;9.190;2024-03-08T10:20:14;27.17;;;15.83;;
3769;SDS011;1900;48.890;9.190;2024-03-08T10:22:41;29.73;;;14.90;;
3769;SDS011;1900;48.890;9.190;2024-03-08T10:25:12;27.17;;;14.57;;
3769;SDS011;1900;48.890;9.190;2024-03-08T10:27:39;25.90;;;14.37;;
3769;SDS011;1900;48.890;9.190;2024-03-08T10:30:15;26.10;;;15.23;;
3769;SDS011;1900;48.890;9.190;2024-03-08T10:32:57;29.53;;;14.60;;
3769;SDS011;1900;48.890;9.190;2024-03-08T10:35:23;28.43;;;15.23;;
3769;SDS011;1900;48.890;9.190;2024-03-08T10:37:51;25.30;;;14.07;;
3769;SDS011;1900;48.890;9.190;2024-03-08T10:40:28;29.17;;;14.37;;
3769;SDS011;1900;48.890;9.190;2024-03-08T10:42:58;32.00;;;15.50;;
3769;SDS011;1900;48.890;9.190;2024-03-08T10:45:31;26.97;;;14.37;;
3769;SDS011;1900;48.890;9.190;2024-03-08T10:51:04;26.83;;;14.90;;
3769;SDS011;1900;48.890;9.190;2024-03-08T10:53:32;25.10;;;14.00;;
3769;SDS011;1900;48.890;9.190;2024-03-08T10:55:59;27.57;;;15.30;;
3769;SDS011;1900;48.890;9.190;2024-03-08T10:58:25;26.50;;;14.80;;
3769;SDS011;1900;48.890;9.190;2024-03-08T11:00:53;23.57;;;14.87;;
3769;SDS011;1900;48.890;9.190;2024-03-08T11:06:17;29.23;;;15.53;;
3769;SDS011;1900;48.890;9.190;2024-03-08T11:08:48;29.20;;;17.10;;
3769;SDS011;1900;48.890;9.190;2024-03-08T11:11:30;24.20;;;14.43;;
3769;SDS011;1900;48.890;9.190;2024-03-08T11:13:59;32.43;;;16.43;;
3769;SDS011;1900;48.890;9.190;2024-03-08T11:19:01;27.53;;;17.07;;
3769;SDS011;1900;48.890;9.190;2024-03-08T11:21:31;32.30;;;16.80;;
3769;SDS011;1900;48.890;9.190;2024-03-08T11:24:08;27.80;;;16.13;;
3769;SDS011;1900;48.890;9.190;2024-03-08T11:26:37;29.40;;;17.80;;
3769;SDS011;1900;48.890;9.190;2024-03-08T11:32:16;27.83;;;16.67;;
3769;SDS011;1900;48.890;9.190;2024-03-08T11:34:47;24.40;;;14.67;;
3769;SDS011;1900;48.890;9.190;2024-03-08T11:37:17;27.10;;;15.17;;
3769;SDS011;1900;48.890;9.190;2024-03-08T11:39:52;32.50;;;16.27;;
3769;SDS011;1900;48.890;9.190;2024-03-08T11:42:24;30.60;;;16.27;;
3769;SDS011;1900;48.890;9.190;2024-03-08T11:44:53;29.27;;;15.03;;
3769;SDS011;1900;48.890;9.190;2024-03-08T11:47:20;34.73;;;16.50;;
3769;SDS011;1900;48.890;9.190;2024-03-08T11:49:46;27.23;;;15.60;;
3769;SDS011;1900;48.890;9.190;2024-03-08T11:52:15;33.70;;;17.03;;
3769;SDS011;1900;48.890;9.190;2024-03-08T11:54:52;34.93;;;17.03;;
3769;SDS011;1900;48.890;9.190;2024-03-08T11:57:19;28.67;;;15.47;;
3769;SDS011;1900;48.890;9.190;2024-03-08T11:59:55;30.30;;;16.80;;
3769;SDS011;1900;48.890;9.190;2024-03-08T12:02:22;33.53;;;16.63;;
3769;SDS011;1900;48.890;9.190;2024-03-08T12:04:55;34.80;;;17.97;;
3769;SDS011;1900;48.890;9.190;2024-03-08T12:07:25;27.10;;;15.33;;
3769;SDS011;1900;48.890;9.190;2024-03-08T12:12:49;31.70;;;18.00;;
3769;SDS011;1900;48.890;9.190;2024-03-08T12:15:19;42.97;;;23.13;;
3769;SDS011;1900;48.890;9.190;2024-03-08T12:17:47;38.50;;;17.60;;
3769;SDS011;1900;48.890;9.190;2024-03-08T12:20:18;34.50;;;20.60;;
3769;SDS011;1900;48.890;9.190;2024-03-08T12:22:48;30.40;;;16.40;;
3769;SDS011;1900;48.890;9.190;2024-03-08T12:25:15;29.07;;;16.13;;
3769;SDS011;1900;48.890;9.190;2024-03-08T12:27:41;38.03;;;19.70;;
3769;SDS011;1900;48.890;9.190;2024-03-08T12:30:16;34.60;;;19.10;;
3769;SDS011;1900;48.890;9.190;2024-03-08T12:32:54;26.30;;;16.77;;
3769;SDS011;1900;48.890;9.190;2024-03-08T12:35:23;29.33;;;15.93;;
3769;SDS011;1900;48.890;9.190;2024-03-08T12:37:53;27.90;;;17.13;;
3769;SDS011;1900;48.890;9.190;2024-03-08T12:40:27;32.80;;;17.00;;
3769;SDS011;1900;48.890;9.190;2024-03-08T12:42:57;31.07;;;16.80;;
3769;SDS011;1900;48.890;9.190;2024-03-08T12:45:24;29.73;;;17.00;;
3769;SDS011;1900;48.890;9.190;2024-03-08T12:47:54;29.70;;;16.80;;
3769;SDS011;1900;48.890;9.190;2024-03-08T12:50:20;34.77;;;16.00;;
3769;SDS011;1900;48.890;9.190;2024-03-08T12:52:47;26.33;;;15.83;;
3769;SDS011;1900;48.890;9.190;2024-03-08T12:55:19;28.73;;;16.73;;
3769;SDS011;1900;48.890;9.190;2024-03-08T12:57:44;28.97;;;16.17;;
3769;SDS011;1900;48.890;9.190;2024-03-08T13:00:13;30.20;;;17.60;;
3769;SDS011;1900;48.890;9.190;2024-03-08T13:02:47;30.60;;;17.00;;
3769;SDS011;1900;48.890;9.190;2024-03-08T13:05:12;28.90;;;16.67;;
3769;SDS011;1900;48.890;9.190;2024-03-08T13:07:39;32.60;;;17.20;;
3769;SDS011;1900;48.890;9.190;2024-03-08T13:10:15;29.07;;;16.00;;
3769;SDS011;1900;48.890;9.190;2024-03-08T13:12:42;27.53;;;16.33;;
3769;SDS011;1900;48.890;9.190;2024-03-08T13:15:08;29.97;;;17.83;;
3769;SDS011;1900;48.890;9.190;2024-03-08T13:17:37;36.90;;;17.70;;
3769;SDS011;1900;48.890;9.190;2024-03-08T13:20:05;31.83;;;17.57;;
3769;SDS011;1900;48.890;9.190;2024-03-08T13:22:33;31.40;;;15.90;;
3769;SDS011;1900;48.890;9.190;2024-03-08T13:24:58;27.70;;;16.00;;
3769;SDS011;1900;48.890;9.190;2024-03-08T13:27:27;27.80;;;15.93;;
3769;SDS011;1900;48.890;9.190;2024-03-08T13:29:53;29.93;;;16.37;;
3769;SDS011;1900;48.890;9.190;2024-03-08T13:32:19;26.37;;;16.90;;
3769;SDS011;1900;48.890;9.190;2024-03-08T13:34:45;27.43;;;17.23;;
3769;SDS011;1900;48.890;9.190;2024-03-08T13:37:16;30.27;;;17.50;;
3769;SDS011;1900;48.890;9.190;2024-03-08T13:39:42;26.20;;;15.13;;
3769;SDS011;1900;48.890;9.190;2024-03-08T13:42:13;28.23;;;14.70;;
3769;SDS011;1900;48.890;9.190;2024-03-08T13:44:47;27.33;;;15.40;;
3769;SDS011;1900;48.890;9.190;2024-03-08T13:47:17;24.27;;;14.90;;
3769;SDS011;1900;48.890;9.190;2024-03-08T13:49:43;24.47;;;15.87;;
3769;SDS011;1900;48.890;9.190;2024-03-08T13:52:09;27.60;;;15.60;;
3769;SDS011;1900;48.890;9.190;2024-03-08T13:54:37;24.57;;;14.93;;
3769;SDS011;1900;48.890;9.190;2024-03-08T13:57:03;26.73;;;16.50;;
3769;SDS011;1900;48.890;9.190;2024-03-08T13:59:33;25.50;;;16.20;;
3769;SDS011;1900;48.890;9.190;2024-03-08T14:02:00;23.57;;;14.60;;
3769;SDS011;1900;48.890;9.190;2024-03-08T14:04:29;28.10;;;15.90;;
3769;SDS011;1900;48.890;9.190;2024-03-08T14:06:56;27.40;;;15.40;;
3769;SDS011;1900;48.890;9.190;2024-03-08T14:09:26;22.10;;;15.27;;
3769;SDS011;1900;48.890;9.190;2024-03-08T14:11:54;27.67;;;16.00;;
3769;SDS011;1900;48.890;9.190;2024-03-08T14:14:23;23.03;;;14.70;;
3769;SDS011;1900;48.890;9.190;2024-03-08T14:16:49;23.60;;;15.13;;
3769;SDS011;1900;48.890;9.190;2024-03-08T14:19:19;26.20;;;16.27;;
3769;SDS011;1900;48.890;9.190;2024-03-08T14:21:45;28.17;;;17.43;;
3769;SDS011;1900;48.890;9.190;2024-03-08T14:24:14;23.90;;;15.63;;
3769;SDS011;1900;48.890;9.190;2024-03-08T14:26:40;27.23;;;15.37;;
3769;SDS011;1900;48.890;9.190;2024-03-08T14:29:07;25.50;;;15.60;;
3769;SDS011;1900;48.890;9.190;2024-03-08T14:31:35;25.83;;;15.87;;
3769;SDS011;1900;48.890;9.190;2024-03-08T14:34:01;22.80;;;15.07;;
3769;SDS011;1900;48.890;9.190;2024-03-08T14:36:28;25.80;;;15.60;;
3769;SDS011;1900;48.890;9.190;2024-03-08T14:38:55;28.90;;;16.40;;
3769;SDS011;1900;48.890;9.190;2024-03-08T14:41:20;26.30;;;15.33;;
3769;SDS011;1900;48.890;9.190;2024-03-08T14:43:47;22.60;;;14.67;;
3769;SDS011;1900;48.890;9.190;2024-03-08T14:46:14;23.07;;;14.70;;
3769;SDS011;1900;48.890;9.190;2024-03-08T14:48:45;28.37;;;15.00;;
3769;SDS011;1900;48.890;9.190;2024-03-08T14:51:21;24.23;;;15.23;;
3769;SDS011;1900;48.890;9.190;2024-03-08T14:53:51;23.90;;;15.03;;
3769;SDS011;1900;48.890;9.190;2024-03-08T14:56:20;28.40;;;14.90;;
3769;SDS011;1900;48.890;9.190;2024-03-08T14:58:46;23.60;;;15.27;;
3769;SDS011;1900;48.890;9.190;2024-03-08T15:01:14;22.87;;;14.97;;
3769;SDS011;1900;48.890;9.190;2024-03-08T15:03:41;24.07;;;15.33;;
3769;SDS011;1900;48.890;9.190;2024-03-08T15:06:08;27.47;;;17.17;;